Latest Coastal Weather Observations for Lockhart River

IDQ60701

Issued at 2:01 am EST Saturday 25 March 2017 (issued every 10 minutes, with the page automatically refreshed every 10 minutes)

About coastal observations | Map of coastal stations | Coastal observations for QLD | Marine services | Other Formats
Station Details ID: 028008 Name: LOCKHART RIVER AIRPORT Lat: -12.79 Lon: 143.30 Height: 18.5 m
Data from the previous 72 hours. | See also: Recent months at Lockhart River
Date/Time
EST
Temp
°C
Wind Pressure Rain since
9am
mm
Weather Cloud Vis
km
Sea
Height
m
Swell
Dir  Spd
kts
Gust
kts
hPa Trend Height
m
Period
s
Dir
25/01:30am 25.0 CALM 0 0 1008.3 - 31.6 - - - - - - -
25/01:00am 24.8 CALM 0 0 1008.6 - 31.6 - - - - - - -
25/12:30am 25.0 CALM 0 0 1008.9 - 31.6 - - - - - - -
25/12:00am 25.3 CALM 0 0 1009.5 - 31.6 - - - - - - -
 
Date/Time
EST
Temp
°C
Wind Pressure Rain since
9am
mm
Weather Cloud Vis
km
Sea
Height
m
Swell
Dir  Spd
kts
Gust
kts
hPa Trend Height
m
Period
s
Dir
24/11:30pm 25.1 CALM 0 0 1009.8 - 31.6 - - - - - - -
24/11:00pm 25.1 CALM 0 0 1009.8 - 31.6 - - - - - - -
24/10:30pm 25.3 CALM 0 0 1009.7 - 31.6 - - - - - - -
24/10:00pm 25.1 CALM 0 0 1009.2 - 31.6 - - - - - - -
24/09:30pm 25.3 CALM 0 0 1009.1 - 31.6 - - - - - - -
24/09:00pm 25.2 N 1 5 1009.4 - 31.6 Recent precip. - - - - - -
24/08:30pm 25.5 SSE 1 5 1009.2 - 31.6 - - - - - - -
24/08:00pm 25.3 CALM 0 0 1009.3 - 30.2 - - - - - - -
24/07:30pm 25.2 CALM 0 0 1009.0 - 30.2 - - - - - - -
24/07:00pm 25.1 CALM 0 0 1008.3 - 30.2 - - - - - - -
24/06:30pm 24.5 NNW 10 13 1007.4 - 29.8 - - - - - - -
24/06:00pm 25.4 WNW 11 17 1007.2 - 21.4 Rain - - - - - -
24/05:30pm 25.7 SSE 10 13 1007.2 - 15.6 - - - - - - -
24/05:00pm 26.7 E 10 19 1006.5 - 0.0 - - - - - - -
24/04:30pm 30.0 N 12 17 1005.0 - 0.0 - - - - - - -
24/04:00pm 31.2 N 7 11 1005.4 - 0.0 - - - - - - -
24/03:30pm 32.0 NNE 7 12 1005.2 - 0.0 - - - - - - -
24/03:00pm 33.9 NW 7 11 1005.4 - 0.0 - - - - - - -
24/02:30pm 33.5 WNW 6 12 1005.8 - 0.0 - - - - - - -
24/02:00pm 33.7 NNW 4 7 1006.3 - 0.0 - - - - - - -
24/01:30pm 32.8 N 2 7 1006.8 - 0.0 - - - - - - -
24/01:00pm 32.2 CALM 0 0 1007.4 - 0.0 - - - - - - -
24/12:30pm 31.2 SE 7 12 1007.9 - 0.0 - - - - - - -
24/12:00pm 31.6 NNW 1 5 1008.5 - 0.0 - - - - - - -
24/11:30am 30.6 NNW 4 8 1009.4 - 0.0 - - - - - - -
24/11:00am 31.4 WSW 3 7 1009.7 - 0.0 - - - - - - -
24/10:30am 30.3 NNW 3 7 1010.0 - 0.0 - - - - - - -
24/10:00am 29.5 WNW 1 5 1010.3 - 0.0 - - - - - - -
24/09:30am 28.6 NNW 4 7 1010.5 - 0.0 - - - - - - -
24/09:00am 26.7 N 1 8 1010.4 - 59.8 Recent precip. - - - - - -
24/08:30am 25.4 CALM 0 4 1009.9 - 59.6 - - - - - - -
24/08:00am 24.8 CALM 0 0 1009.7 - 59.6 - - - - - - -
24/07:30am 23.9 CALM 0 4 1009.4 - 59.6 - - - - - - -
24/07:00am 23.6 CALM 0 0 1009.2 - 59.6 - - - - - - -
24/06:30am 23.4 CALM 0 0 1008.9 - 59.6 - - - - - - -
24/06:00am 23.5 CALM 0 0 1008.7 - 59.6 - - - - - - -
24/05:30am 23.7 CALM 0 0 1008.2 - 59.6 - - - - - - -
24/05:00am 23.9 CALM 0 0 1008.1 - 59.6 - - - - - - -
24/04:30am 24.3 CALM 0 0 1007.8 - 59.6 - - - - - - -
24/04:00am 24.1 CALM 0 0 1007.6 - 59.6 - - - - - - -
24/03:30am 24.0 CALM 0 0 1007.5 - 59.6 - - - - - - -
24/03:00am 24.3 CALM 0 0 1007.3 - 59.6 - - - - - - -
24/02:30am 24.4 CALM 0 0 1007.9 - 59.6 - - - - - - -
24/02:00am 24.5 CALM 0 0 1008.3 - 59.6 - - - - - - -
24/01:30am 24.7 CALM 0 0 1008.6 - 59.6 - - - - - - -
24/01:00am 24.8 CALM 0 0 1008.9 - 59.6 - - - - - - -
24/12:30am 24.7 CALM 0 5 1009.4 - 59.4 - - - - - - -
24/12:00am 25.0 CALM 0 4 1010.3 - 59.0 Rain - - - - - -
 
Date/Time
EST
Temp
°C
Wind Pressure Rain since
9am
mm
Weather Cloud Vis
km
Sea
Height
m
Swell
Dir  Spd
kts
Gust
kts
hPa Trend Height
m
Period
s
Dir
23/11:30pm 25.0 WSW 2 7 1010.7 - 58.6 - - - - - - -
23/11:00pm 24.5 NW 1 5 1010.5 - 58.6 - - - - - - -
23/10:30pm 24.5 CALM 0 0 1010.5 - 58.6 - - - - - - -
23/10:00pm 24.5 CALM 0 5 1010.1 - 58.4 - - - - - - -
23/09:30pm 24.7 CALM 0 0 1010.3 - 58.4 - - - - - - -
23/09:00pm 24.7 CALM 0 0 1009.7 - 58.4 Recent precip. - - - - - -
23/08:30pm 24.7 W 6 8 1009.4 - 58.2 - - - - - - -
23/08:00pm 25.1 NW 7 9 1009.4 - 57.4 - - - - - - -
23/07:30pm 25.1 NNW 11 16 1009.4 - 56.8 - - - - - - -
23/07:00pm 25.3 N 10 18 1009.1 - 42.2 - - - - - - -
23/06:30pm 26.2 WNW 5 9 1008.4 - 11.8 - - - - - - -
23/06:00pm 26.2 NW 4 7 1007.7 - 9.8 - - - - - - -
23/05:30pm 26.3 W 1 8 1007.1 - 9.8 - - - - - - -
23/05:00pm 26.1 CALM 0 0 1006.9 - 9.8 - - - - - - -
23/04:30pm 25.9 NW 2 5 1007.1 - 9.8 - - - - - - -
23/04:00pm 26.0 NW 1 5 1006.8 - 9.8 - - - - - - -
23/03:30pm 26.1 WSW 3 6 1007.2 - 9.8 - - - - - - -
23/03:00pm 25.5 NNW 9 21 1007.0 - 9.8 Rain - - - - - -
23/02:30pm 27.9 SE 13 21 1007.1 - 1.6 - - - - - - -
23/02:00pm 30.9 NE 9 12 1006.8 - 1.6 - - - - - - -
23/01:30pm 31.1 NE 8 11 1007.5 - 1.6 - - - - - - -
23/01:00pm 31.4 NE 7 10 1008.1 - 1.4 - - - - - - -
23/12:30pm 29.4 N 2 7 1008.5 - 1.4 - - - - - - -
23/12:00pm 32.1 CALM 0 4 1008.9 - 0.2 - - - - - - -
23/11:30am 31.6 CALM 0 5 1009.6 - 0.2 - - - - - - -
23/11:00am 30.8 NNW 3 6 1010.1 - 0.2 - - - - - - -
23/10:30am 30.1 WNW 1 5 1010.3 - 0.2 - - - - - - -
23/10:00am 29.7 CALM 0 0 1010.6 - 0.2 - - - - - - -
23/09:30am 29.3 CALM 0 0 1010.7 - 0.2 - - - - - - -
23/09:00am 29.1 S 1 6 1010.7 - 3.6 - - - - - - -
23/08:30am 28.1 SE 1 6 1010.7 - 3.6 - - - - - - -
23/08:00am 26.7 CALM 0 0 1010.7 - 3.6 - - - - - - -
23/07:30am 25.1 CALM 0 0 1010.4 - 3.6 - - - - - - -
23/07:00am 24.4 CALM 0 0 1009.7 - 3.6 - - - - - - -
23/06:30am 24.1 CALM 0 0 1009.3 - 3.6 - - - - - - -
23/06:00am 23.9 CALM 0 0 1009.0 - 3.6 - - - - - - -
23/05:30am 24.0 CALM 0 0 1009.0 - 3.6 - - - - - - -
23/05:00am 24.1 CALM 0 0 1008.9 - 3.6 - - - - - - -
23/04:30am 24.4 CALM 0 0 1008.7 - 3.6 - - - - - - -
23/04:00am 24.1 CALM 0 0 1008.5 - 3.6 - - - - - - -
23/03:30am 24.1 CALM 0 0 1008.2 - 3.6 - - - - - - -
23/03:00am 24.1 SW 1 5 1008.4 - 3.6 - - - - - - -
23/02:30am 24.2 CALM 0 0 1008.5 - 3.6 - - - - - - -
23/02:00am 24.4 CALM 0 0 1009.0 - 3.6 - - - - - - -
23/01:30am 24.4 CALM 0 0 1009.3 - 3.6 - - - - - - -
23/01:00am 24.4 CALM 0 0 1009.4 - 3.6 - - - - - - -
23/12:30am 24.4 CALM 0 0 1009.8 - 3.6 - - - - - - -
23/12:00am 24.7 WNW 3 6 1010.2 - 3.6 - - - - - - -
 
Date/Time
EST
Temp
°C
Wind Pressure Rain since
9am
mm
Weather Cloud Vis
km
Sea
Height
m
Swell
Dir  Spd
kts
Gust
kts
hPa Trend Height
m
Period
s
Dir
22/11:30pm 24.8 CALM 0 5 1010.4 - 3.6 - - - - - - -
22/11:00pm 24.9 CALM 0 0 1010.7 - 3.6 - - - - - - -
22/10:30pm 24.9 CALM 0 5 1010.7 - 3.6 - - - - - - -
22/10:00pm 25.3 CALM 0 0 1010.6 - 3.6 - Partly cloudy - - - - -
22/09:30pm 25.4 CALM 0 0 1010.4 - 3.6 - - - - - - -
22/09:00pm 25.5 CALM 0 0 1009.6 - 3.6 - Cloudy - - - - -
22/08:30pm 25.3 CALM 0 0 1009.0 - 3.6 - - - - - - -
22/08:00pm 25.3 NNW 1 5 1008.4 - 3.6 - - - - - - -
22/07:30pm 25.4 N 1 5 1008.4 - 3.4 - Partly cloudy - - - - -
22/07:00pm 25.6 NW 3 8 1008.0 - 3.4 - Partly cloudy - - - - -
22/06:30pm 26.3 NW 6 8 1008.4 - 3.4 - Partly cloudy - - - - -
22/06:00pm 26.7 CALM 0 4 1008.0 - 3.4 Rain Mostly cloudy - - - - -
22/05:30pm 28.0 WSW 6 8 1007.8 - 1.8 - Partly cloudy - - - - -
22/05:00pm 28.3 CALM 0 4 1007.0 - 1.8 - Partly cloudy - - - - -
22/04:30pm 28.1 NNW 7 10 1006.7 - 1.8 - Partly cloudy - - - - -
22/04:00pm 29.5 N 7 11 1006.8 - 1.8 - Partly cloudy - - - - -
22/03:30pm 30.7 NNE 5 8 1006.8 - 1.8 - Partly cloudy - - - - -
22/03:00pm 31.2 NE 3 7 1006.8 - 1.8 - Mostly clear - - - - -
22/02:30pm 30.7 NE 6 7 1007.3 - 1.8 - Partly cloudy - - - - -
22/02:00pm 31.2 ENE 3 6 1007.7 - 1.8 - - - - - - -
22/01:30pm 29.7 ENE 1 5 1008.0 - 1.8 - - - - - - -
22/01:00pm 27.9 NNE 2 6 1008.8 - 1.8 - - - - - - -
22/12:30pm 28.6 NE 2 7 1009.5 - 1.8 - Partly cloudy - - - - -
22/12:00pm 27.6 - 6 12 1010.1 - 1.6 Rain Cloudy - - - - -
22/11:30am 32.0 ENE 1 5 1010.3 - 0.0 - Partly cloudy - - - - -
22/11:00am 31.3 NNW 1 5 1010.7 - 0.0 - - - - - - -
22/10:30am 30.3 CALM 0 0 1011.3 - 0.0 - - - - - - -
22/10:00am 29.5 CALM 0 0 1011.5 - 0.0 - - - - - - -
22/09:30am 29.0 CALM 0 0 1011.6 - 0.0 - - - - - - -
22/09:00am 27.8 CALM 0 0 1011.6 - - - - - - - - -
22/08:30am 26.6 CALM 0 0 1011.5 - - - - - - - - -
22/08:00am 25.5 CALM 0 0 1011.1 - - - - - - - - -
22/07:30am 24.3 CALM 0 0 1010.8 - - - - - - - - -
22/07:00am 23.8 CALM 0 0 1010.5 - - - - - - - - -
22/06:30am 23.6 CALM 0 0 1010.0 - - - - - - - - -
22/06:00am 23.7 CALM 0 0 1009.6 - - - - - - - - -
22/05:30am 23.9 CALM 0 0 1009.3 - - - - - - - - -
22/05:00am 23.8 CALM 0 0 1008.9 - - - - - - - - -
22/04:30am 23.8 CALM 0 0 1008.7 - - - - - - - - -
22/04:00am 24.1 CALM 0 0 1008.6 - 26.8 - - - - - - -
22/03:30am 24.2 CALM 0 0 1008.5 - 26.8 - - - - - - -
22/03:00am 24.3 CALM 0 0 1008.8 - 26.8 - Partly cloudy - - - - -
22/02:30am 24.5 CALM 0 0 1009.0 - 26.8 - - - - - - -

Other Formats:

Comma delimited format used in spreadsheet applications
http://www.bom.gov.au/fwo/IDQ60701/IDQ60701.94186.axf

JavaScript Object Notation format (JSON) in row-major order
http://www.bom.gov.au/fwo/IDQ60701/IDQ60701.94186.json